createdAt,value
2023-05-21T00:00:03.383Z,17
2023-05-21T00:01:03.405Z,18.2143
2023-05-21T00:02:03.419Z,16.9286
2023-05-21T00:03:03.540Z,17.6429
2023-05-21T00:04:03.646Z,16.9286
2023-05-21T00:05:03.505Z,18.3571
2023-05-21T00:06:03.592Z,17
2023-05-21T00:07:03.540Z,16.7143
2023-05-21T00:08:03.564Z,17.5
2023-05-21T00:09:03.587Z,17.4286
2023-05-21T00:10:03.633Z,16.7143
2023-05-21T00:11:03.634Z,17.4286
2023-05-21T00:12:03.629Z,16.2143
2023-05-21T00:13:03.652Z,16.2143
2023-05-21T00:14:03.673Z,16.3571
2023-05-21T00:15:03.665Z,16.9286
2023-05-21T00:16:03.773Z,16.6429
2023-05-21T00:17:03.689Z,16
2023-05-21T00:18:03.732Z,16.1429
2023-05-21T00:19:03.781Z,16.1429
2023-05-21T00:20:03.739Z,16.4286
2023-05-21T00:21:03.764Z,15.9286
2023-05-21T00:22:03.808Z,16.6429
2023-05-21T00:23:03.878Z,15.5
2023-05-21T00:24:03.839Z,16.2143
2023-05-21T00:25:03.888Z,16.9286
2023-05-21T00:26:03.892Z,16.3571
2023-05-21T00:27:03.917Z,16
2023-05-21T00:28:03.957Z,16.7143
2023-05-21T00:29:03.976Z,15.6429
2023-05-21T00:30:03.984Z,17.1429
2023-05-21T00:31:04.002Z,16.8571
2023-05-21T00:32:04.130Z,16.9286
2023-05-21T00:33:04.096Z,18.4286
2023-05-21T00:34:04.095Z,17.6429
2023-05-21T00:35:03.121Z,17.9286
2023-05-21T00:36:03.124Z,16.8571
2023-05-21T00:37:03.151Z,17.4286
2023-05-21T00:38:03.158Z,17.8571
2023-05-21T00:39:03.171Z,17.5
2023-05-21T00:40:03.198Z,17
2023-05-21T00:41:03.219Z,16.9286
2023-05-21T00:42:03.245Z,17.6429
2023-05-21T00:43:03.260Z,16.4286
2023-05-21T00:44:03.256Z,17.6429
2023-05-21T00:45:03.261Z,17.3571
2023-05-21T00:46:03.302Z,17.9286
2023-05-21T00:47:03.275Z,16.5
2023-05-21T00:48:03.358Z,18
2023-05-21T00:49:03.328Z,18.1429
2023-05-21T00:50:03.354Z,16.6429
2023-05-21T00:51:03.366Z,17.8571
2023-05-21T00:52:03.395Z,17.6429
2023-05-21T00:53:03.421Z,16.9286
2023-05-21T00:54:03.450Z,17
2023-05-21T00:55:03.458Z,17
2023-05-21T00:56:03.501Z,16.6429
2023-05-21T00:57:03.483Z,17.4286
2023-05-21T00:58:03.509Z,17
2023-05-21T00:59:03.540Z,17.6429
2023-05-21T01:00:03.546Z,17.8571
2023-05-21T01:01:03.689Z,17.3571
2023-05-21T01:02:03.632Z,16.9286
2023-05-21T01:03:03.689Z,18.4286
2023-05-21T01:04:03.621Z,18.7143
2023-05-21T01:05:03.616Z,17.7143
2023-05-21T01:06:03.635Z,18.2143
2023-05-21T01:07:03.654Z,18
2023-05-21T01:08:03.636Z,17.1429
2023-05-21T01:09:04.947Z,17.5
2023-05-21T01:10:03.677Z,18.6429
2023-05-21T01:11:03.707Z,17.8571
2023-05-21T01:12:03.745Z,17.7143
2023-05-21T01:13:03.814Z,18.5
2023-05-21T01:14:03.785Z,18.9286
2023-05-21T01:15:03.818Z,18.5
2023-05-21T01:16:03.846Z,17.4286
2023-05-21T01:17:03.874Z,18.4286
2023-05-21T01:18:03.948Z,18.2143
2023-05-21T01:19:04.022Z,17.8571
2023-05-21T01:20:03.920Z,17.6429
2023-05-21T01:21:03.944Z,17
2023-05-21T01:22:03.968Z,18
2023-05-21T01:23:04.000Z,17.3571
2023-05-21T01:24:04.029Z,17.4286
2023-05-21T01:25:04.046Z,17.5
2023-05-21T01:26:04.080Z,17.7143
2023-05-21T01:27:03.125Z,17.2143
2023-05-21T01:28:03.108Z,17.8571
2023-05-21T01:29:03.133Z,16.9286
2023-05-21T01:30:03.155Z,18
2023-05-21T01:31:03.188Z,19.6429
2023-05-21T01:32:03.202Z,18.2143
2023-05-21T01:33:03.429Z,17.4286
2023-05-21T01:34:03.253Z,17.8571
2023-05-21T01:35:03.247Z,16.9286
2023-05-21T01:36:03.249Z,17.9286
2023-05-21T01:37:03.267Z,17.9286
2023-05-21T01:38:03.263Z,17.9286
2023-05-21T01:39:03.278Z,19.8571
2023-05-21T01:40:03.313Z,19.8571
2023-05-21T01:41:03.312Z,19.6429
2023-05-21T01:42:03.336Z,20.3571
2023-05-21T01:43:03.357Z,19.7143
2023-05-21T01:44:03.379Z,20.6429
2023-05-21T01:45:03.456Z,18.4286
2023-05-21T01:46:03.469Z,18.6429
2023-05-21T01:47:03.528Z,19.3571
2023-05-21T01:48:03.551Z,19.4286
2023-05-21T01:49:03.525Z,19.1429
2023-05-21T01:50:03.550Z,19.5
2023-05-21T01:51:03.597Z,18.1429
2023-05-21T01:52:03.614Z,19.4286
2023-05-21T01:53:03.651Z,18.6429
2023-05-21T01:54:03.637Z,19
2023-05-21T01:55:03.661Z,20
2023-05-21T01:56:03.674Z,19.1429
2023-05-21T01:57:03.695Z,18.4286
2023-05-21T01:58:03.740Z,18.1429
2023-05-21T01:59:03.733Z,18
2023-05-21T02:00:03.741Z,18.1429
2023-05-21T02:01:03.753Z,18
2023-05-21T02:02:03.836Z,17.6429
2023-05-21T02:03:03.885Z,16.7143
2023-05-21T02:04:03.826Z,18.6429
2023-05-21T02:05:03.785Z,18.3571
2023-05-21T02:06:03.812Z,19.2143
2023-05-21T02:07:03.873Z,18.3571
2023-05-21T02:08:03.870Z,19.1429
2023-05-21T02:09:03.887Z,17.7143
2023-05-21T02:10:03.908Z,17.8571
2023-05-21T02:11:03.935Z,17.4286
2023-05-21T02:12:03.985Z,16.7143
2023-05-21T02:13:03.988Z,17.7143
2023-05-21T02:14:03.996Z,17.3571
2023-05-21T02:15:04.021Z,16.3571
2023-05-21T02:16:04.072Z,17.6429
2023-05-21T02:17:04.102Z,16.8571
2023-05-21T02:18:04.170Z,17
2023-05-21T02:19:03.187Z,16
2023-05-21T02:20:03.126Z,15.3571
2023-05-21T02:21:03.134Z,17
2023-05-21T02:22:03.173Z,15.5
2023-05-21T02:23:03.185Z,16.4286
2023-05-21T02:24:03.179Z,16.4286
2023-05-21T02:25:03.190Z,16
2023-05-21T02:26:03.192Z,17.3571
2023-05-21T02:27:03.232Z,16.7143
2023-05-21T02:28:03.215Z,17.8571
2023-05-21T02:29:03.234Z,16.6429
2023-05-21T02:30:03.260Z,16.4286
2023-05-21T02:31:03.290Z,17.2143
2023-05-21T02:32:03.323Z,17.2143
2023-05-21T02:33:03.400Z,16.6429
2023-05-21T02:34:03.425Z,16.9286
2023-05-21T02:35:03.379Z,17.5
2023-05-21T02:36:03.402Z,17.3571
2023-05-21T02:37:03.435Z,17.1429
2023-05-21T02:38:03.490Z,16.5
2023-05-21T02:39:03.512Z,16.2143
2023-05-21T02:40:03.545Z,17.1429
2023-05-21T02:41:03.549Z,17.7143
2023-05-21T02:42:03.570Z,17.6429
2023-05-21T02:43:03.596Z,16.9286
2023-05-21T02:44:03.629Z,16.4286
2023-05-21T02:45:03.668Z,16.7143
2023-05-21T02:46:03.706Z,16.8571
2023-05-21T02:47:03.699Z,15.9286
2023-05-21T02:48:03.777Z,16.3571
2023-05-21T02:49:03.742Z,17
2023-05-21T02:50:03.765Z,17.4286
2023-05-21T02:51:03.765Z,17.2143
2023-05-21T02:52:03.788Z,16.3571
2023-05-21T02:53:03.812Z,17.8571
2023-05-21T02:54:03.828Z,17.3571
2023-05-21T02:55:03.853Z,16.9286
2023-05-21T02:56:03.847Z,17
2023-05-21T02:57:03.877Z,17.4286
2023-05-21T02:58:03.871Z,17.9286
2023-05-21T02:59:03.876Z,18.4286
2023-05-21T03:00:03.884Z,18.5
2023-05-21T03:01:03.896Z,17.5
2023-05-21T03:02:03.929Z,18.1429
2023-05-21T03:03:04.057Z,16.9286
2023-05-21T03:04:03.959Z,18.4286
2023-05-21T03:05:03.976Z,18.4286
2023-05-21T03:06:04.010Z,18.6429
2023-05-21T03:07:04.033Z,17.5
2023-05-21T03:08:04.092Z,18.6429
2023-05-21T03:09:03.100Z,19.1429
2023-05-21T03:10:03.142Z,17.6429
2023-05-21T03:11:03.201Z,19.2143
2023-05-21T03:12:03.183Z,19.4286
2023-05-21T03:13:03.231Z,18.8571
2023-05-21T03:14:03.242Z,18.5
2023-05-21T03:15:03.277Z,20.3571
2023-05-21T03:16:03.270Z,20.1429
2023-05-21T03:17:03.310Z,20.4286
2023-05-21T03:18:03.370Z,20.2143
2023-05-21T03:19:03.388Z,19.4286
2023-05-21T03:20:03.355Z,19.5
2023-05-21T03:21:03.352Z,19.4286
2023-05-21T03:22:03.382Z,20.2143
2023-05-21T03:23:03.377Z,19.6429
2023-05-21T03:24:03.405Z,18.9286
2023-05-21T03:25:03.417Z,19.8571
2023-05-21T03:26:03.425Z,20.4286
2023-05-21T03:27:03.469Z,19.9286
2023-05-21T03:28:03.441Z,20.4286
2023-05-21T03:29:03.480Z,18.6429
2023-05-21T03:30:05.349Z,19.6429
2023-05-21T03:31:03.528Z,20.3571
2023-05-21T03:32:03.639Z,20.9286
2023-05-21T03:33:03.663Z,21.3571
2023-05-21T03:34:03.600Z,19.8571
2023-05-21T03:35:03.629Z,21.4286
2023-05-21T03:36:03.653Z,20.2143
2023-05-21T03:37:03.666Z,20.7143
2023-05-21T03:38:03.731Z,20.9286
2023-05-21T03:39:03.769Z,20.3571
2023-05-21T03:40:03.749Z,21.5
2023-05-21T03:41:03.779Z,20.8571
2023-05-21T03:42:03.808Z,21.9286
2023-05-21T03:43:03.807Z,19.6429
2023-05-21T03:44:03.836Z,20.9286
2023-05-21T03:45:03.851Z,21.3571
2023-05-21T03:46:03.897Z,20.3571
2023-05-21T03:47:03.894Z,21.3571
2023-05-21T03:48:04.010Z,20.3571
2023-05-21T03:49:03.929Z,20.6429
2023-05-21T03:50:03.943Z,21.1429
2023-05-21T03:51:03.958Z,20.9286
2023-05-21T03:52:03.966Z,21.4286
2023-05-21T03:53:03.972Z,20.3571
2023-05-21T03:54:04.002Z,22.1429
2023-05-21T03:55:04.006Z,20.6429
2023-05-21T03:56:04.001Z,21.7143
2023-05-21T03:57:04.033Z,21.8571
2023-05-21T03:58:04.049Z,20.3571
2023-05-21T03:59:04.078Z,21.5
2023-05-21T04:00:03.124Z,21.9286
2023-05-21T04:01:03.157Z,20.6429
2023-05-21T04:02:03.212Z,22
2023-05-21T04:03:03.272Z,22.9286
2023-05-21T04:04:03.413Z,21.9286
2023-05-21T04:05:03.221Z,22.5
2023-05-21T04:06:03.259Z,21.5
2023-05-21T04:07:03.279Z,21.9286
2023-05-21T04:08:03.289Z,20.7143
2023-05-21T04:09:03.304Z,21.1429
2023-05-21T04:10:03.331Z,21.5
2023-05-21T04:11:03.351Z,21.5
2023-05-21T04:12:03.408Z,22.3571
2023-05-21T04:13:03.408Z,22.1429
2023-05-21T04:14:03.390Z,21.1429
2023-05-21T04:15:03.414Z,22
2023-05-21T04:16:03.478Z,20.5
2023-05-21T04:17:03.445Z,20.7143
2023-05-21T04:18:03.535Z,21.2143
2023-05-21T04:19:03.530Z,21.4286
2023-05-21T04:20:03.475Z,22.6429
2023-05-21T04:21:03.512Z,22.3571
2023-05-21T04:22:03.493Z,22.9286
2023-05-21T04:23:03.538Z,22.4286
2023-05-21T04:24:03.565Z,22.3571
2023-05-21T04:25:03.560Z,22.3571
2023-05-21T04:26:03.585Z,22
2023-05-21T04:27:03.633Z,24.3571
2023-05-21T04:28:03.629Z,22.9286
2023-05-21T04:29:03.676Z,22.3571
2023-05-21T04:30:03.691Z,23.3571
2023-05-21T04:31:03.725Z,24.4286
2023-05-21T04:32:03.752Z,21.8571
2023-05-21T04:33:03.789Z,22.7143
2023-05-21T04:34:03.786Z,23
2023-05-21T04:35:03.797Z,22.3571
2023-05-21T04:36:03.861Z,22.9286
2023-05-21T04:37:03.877Z,23.3571
2023-05-21T04:38:04.346Z,23.2143
2023-05-21T04:39:03.888Z,23
2023-05-21T04:40:03.920Z,22.3571
2023-05-21T04:41:03.961Z,22.7143
2023-05-21T04:42:03.971Z,22.5
2023-05-21T04:43:03.982Z,24.4286
2023-05-21T04:44:04.007Z,22.9286
2023-05-21T04:45:04.043Z,22.7143
2023-05-21T04:46:04.018Z,24.6429
2023-05-21T04:47:04.158Z,23.2143
2023-05-21T04:48:04.066Z,23.8571
2023-05-21T04:49:04.044Z,24.5
2023-05-21T04:50:04.062Z,25.5
2023-05-21T04:51:04.099Z,24.2143
2023-05-21T04:52:03.096Z,24.3571
2023-05-21T04:53:03.134Z,23.6429
2023-05-21T04:54:03.163Z,24.9286
2023-05-21T04:55:03.190Z,24.8571
2023-05-21T04:56:03.211Z,24.6429
2023-05-21T04:57:03.263Z,23.5
2023-05-21T04:58:03.260Z,25
2023-05-21T04:59:05.164Z,23.7143
2023-05-21T05:00:03.319Z,24.5
2023-05-21T05:01:03.481Z,23.5
2023-05-21T05:02:03.372Z,23.6429
2023-05-21T05:03:03.467Z,23.7143
2023-05-21T05:04:03.418Z,24.8571
2023-05-21T05:05:03.448Z,24.5
2023-05-21T05:06:03.439Z,23.5
2023-05-21T05:07:03.469Z,23.8571
2023-05-21T05:08:03.484Z,24
2023-05-21T05:09:03.509Z,23.6429
2023-05-21T05:10:03.541Z,24.1429
2023-05-21T05:11:03.561Z,24.5
2023-05-21T05:12:03.550Z,24
2023-05-21T05:13:03.611Z,23.4286
2023-05-21T05:14:03.595Z,23.2143
2023-05-21T05:15:03.624Z,24.2143
2023-05-21T05:16:03.680Z,22.1429
2023-05-21T05:17:03.655Z,23.8571
2023-05-21T05:18:03.731Z,24
2023-05-21T05:19:03.693Z,23.9286
2023-05-21T05:20:03.681Z,23
2023-05-21T05:21:03.722Z,24
2023-05-21T05:22:03.756Z,23.3571
2023-05-21T05:23:03.940Z,23.8571
2023-05-21T05:24:03.785Z,23.2143
2023-05-21T05:25:03.814Z,23.9286
2023-05-21T05:26:03.840Z,23.9286
2023-05-21T05:27:03.860Z,23.1429
2023-05-21T05:28:03.886Z,24
2023-05-21T05:29:03.938Z,23.9286
2023-05-21T05:30:03.919Z,24.2143
2023-05-21T05:31:03.971Z,23.9286
2023-05-21T05:32:03.968Z,23.1429
2023-05-21T05:33:04.027Z,23.1429
2023-05-21T05:34:04.136Z,22.9286
2023-05-21T05:35:04.060Z,24
2023-05-21T05:36:04.067Z,23.4286
2023-05-21T05:37:04.098Z,24
2023-05-21T05:38:03.105Z,24.1429
2023-05-21T05:39:03.124Z,23.3571
2023-05-21T05:40:03.125Z,23.2143
2023-05-21T05:41:03.138Z,23.9286
2023-05-21T05:42:03.182Z,23.8571
2023-05-21T05:43:03.176Z,22.8571
2023-05-21T05:44:03.188Z,24.5
2023-05-21T05:45:03.214Z,22.9286
2023-05-21T05:46:03.198Z,24
2023-05-21T05:47:03.224Z,23.6429
2023-05-21T05:48:03.297Z,23.4286
2023-05-21T05:49:03.264Z,23.7143
2023-05-21T05:50:03.299Z,23.3571
2023-05-21T05:51:03.312Z,22.9286
2023-05-21T05:52:03.358Z,22.5
2023-05-21T05:53:03.377Z,23.6429
2023-05-21T05:54:03.403Z,22.8571
2023-05-21T05:55:03.431Z,23.5
2023-05-21T05:56:03.441Z,23.7143
2023-05-21T05:57:03.479Z,23.2143
2023-05-21T05:58:03.495Z,22
2023-05-21T05:59:03.527Z,22.6429
2023-05-21T06:00:03.548Z,22.9286
2023-05-21T06:01:03.568Z,22.6429
2023-05-21T06:02:03.604Z,23
2023-05-21T06:03:03.697Z,23.2143
2023-05-21T06:04:03.642Z,22.3571
2023-05-21T06:05:03.665Z,23.7143
2023-05-21T06:06:03.699Z,23.2143
2023-05-21T06:07:03.715Z,22.9286
2023-05-21T06:08:03.691Z,22.9286
2023-05-21T06:09:03.729Z,22.7143
2023-05-21T06:10:03.717Z,23.8571
2023-05-21T06:11:03.724Z,22.3571
2023-05-21T06:12:03.762Z,23.1429
2023-05-21T06:13:03.735Z,22
2023-05-21T06:14:03.770Z,22.9286
2023-05-21T06:15:03.819Z,21.7143
2023-05-21T06:16:03.881Z,21.8571
2023-05-21T06:17:03.849Z,22.6429
2023-05-21T06:18:03.916Z,21.9286
2023-05-21T06:19:03.923Z,21.9286
2023-05-21T06:20:03.915Z,22.1429
2023-05-21T06:21:03.933Z,23.2143
2023-05-21T06:22:03.968Z,21.2143
2023-05-21T06:23:03.984Z,23.3571
2023-05-21T06:24:03.997Z,23.2143
2023-05-21T06:25:04.032Z,23.6429
2023-05-21T06:26:04.043Z,22.2143
2023-05-21T06:27:04.101Z,23.5
2023-05-21T06:28:04.086Z,22.7143
2023-05-21T06:29:03.120Z,22.2143
2023-05-21T06:30:03.123Z,21.7143
2023-05-21T06:31:03.138Z,23.3571
2023-05-21T06:32:03.157Z,21.4286
2023-05-21T06:33:03.321Z,22.3571
2023-05-21T06:34:03.279Z,21.8571
2023-05-21T06:35:03.239Z,21.7143
2023-05-21T06:36:03.215Z,21.5
2023-05-21T06:37:03.210Z,20.9286
2023-05-21T06:38:03.233Z,22.1429
2023-05-21T06:39:03.245Z,21.5
2023-05-21T06:40:03.252Z,21.7143
2023-05-21T06:41:03.266Z,20.8571
2023-05-21T06:42:03.300Z,22
2023-05-21T06:43:03.314Z,21.9286
2023-05-21T06:44:03.350Z,22.1429
2023-05-21T06:45:03.377Z,21.1429
2023-05-21T06:46:03.498Z,20.9286
2023-05-21T06:47:03.431Z,21.2143
2023-05-21T06:48:03.501Z,21.1429
2023-05-21T06:49:03.491Z,20.1429
2023-05-21T06:50:03.509Z,20.9286
2023-05-21T06:51:03.550Z,21
2023-05-21T06:52:03.544Z,21.2143
2023-05-21T06:53:03.564Z,21
2023-05-21T06:54:03.587Z,20.3571
2023-05-21T06:55:03.604Z,19.6429
2023-05-21T06:56:03.638Z,19.6429
2023-05-21T06:57:03.670Z,19.9286
2023-05-21T06:58:03.649Z,19.7143
2023-05-21T06:59:03.662Z,19
2023-05-21T07:00:03.667Z,19.3571
2023-05-21T07:01:03.680Z,19.2143
2023-05-21T07:02:04.585Z,18.6429
2023-05-21T07:03:03.764Z,18.4286
2023-05-21T07:04:03.707Z,19
2023-05-21T07:05:03.733Z,19.2143
2023-05-21T07:06:03.755Z,18.3571
2023-05-21T07:07:03.799Z,19
2023-05-21T07:08:03.823Z,18.4286
2023-05-21T07:09:03.845Z,18.6429
2023-05-21T07:10:03.871Z,18.2143
2023-05-21T07:11:03.915Z,18.5
2023-05-21T07:12:03.946Z,18.3571
2023-05-21T07:13:03.966Z,19.2143
2023-05-21T07:14:03.979Z,19.2143
2023-05-21T07:15:04.018Z,17.5
2023-05-21T07:16:04.043Z,18
2023-05-21T07:17:04.071Z,18.1429
2023-05-21T07:18:04.202Z,17.8571
2023-05-21T07:19:03.156Z,16.8571
2023-05-21T07:20:03.120Z,17
2023-05-21T07:21:03.135Z,17
2023-05-21T07:22:03.150Z,17
2023-05-21T07:23:03.173Z,17.4286
2023-05-21T07:24:03.216Z,17.2143
2023-05-21T07:25:03.216Z,16.4286
2023-05-21T07:26:03.267Z,16.6429
2023-05-21T07:27:06.597Z,17.5
2023-05-21T07:28:04.592Z,16.3571
2023-05-21T07:29:03.284Z,16.1429
2023-05-21T07:30:03.310Z,16.4286
2023-05-21T07:31:03.352Z,16.1429
2023-05-21T07:32:03.315Z,16.3571
2023-05-21T07:33:03.398Z,17.1429
2023-05-21T07:34:03.355Z,15.8571
2023-05-21T07:35:03.367Z,15.8571
2023-05-21T07:36:03.381Z,15.8571
2023-05-21T07:37:03.423Z,15.2143
2023-05-21T07:38:03.454Z,15.3571
2023-05-21T07:39:03.468Z,15.7143
2023-05-21T07:40:03.513Z,15.4286
2023-05-21T07:41:03.513Z,15.5
2023-05-21T07:42:03.545Z,15.7143
2023-05-21T07:43:03.579Z,14.9286
2023-05-21T07:44:03.591Z,15
2023-05-21T07:45:03.614Z,15.5
2023-05-21T07:46:03.671Z,15.9286
2023-05-21T07:47:03.676Z,14.6429
2023-05-21T07:48:03.733Z,15.5
2023-05-21T07:49:03.729Z,15.1429
2023-05-21T07:50:03.744Z,16
2023-05-21T07:51:03.761Z,15.2143
2023-05-21T07:52:03.781Z,15.2143
2023-05-21T07:53:03.868Z,14.8571
2023-05-21T07:54:03.846Z,15.6429
2023-05-21T07:55:03.824Z,15.4286
2023-05-21T07:56:03.838Z,15.5
2023-05-21T07:57:03.855Z,15.3571
2023-05-21T07:58:03.873Z,15.3571
2023-05-21T07:59:03.895Z,15.4286
2023-05-21T08:00:03.884Z,15.7143
2023-05-21T08:01:03.889Z,15
2023-05-21T08:02:03.912Z,14.5
2023-05-21T08:03:03.998Z,15.5
2023-05-21T08:04:04.112Z,14.7143
2023-05-21T08:05:04.011Z,15.7143
2023-05-21T08:06:04.006Z,14.8571
2023-05-21T08:07:04.037Z,15.2143
2023-05-21T08:08:04.058Z,15.1429
2023-05-21T08:09:04.094Z,14.8571
2023-05-21T08:10:03.163Z,14.4286
2023-05-21T08:11:03.143Z,14.3571
2023-05-21T08:12:03.160Z,14.2143
2023-05-21T08:13:03.196Z,14.2143
2023-05-21T08:14:03.223Z,14.6429
2023-05-21T08:15:03.235Z,14.5
2023-05-21T08:16:03.278Z,14.2143
2023-05-21T08:17:03.279Z,14
2023-05-21T08:18:03.344Z,14.1429
2023-05-21T08:19:03.400Z,13.9286
2023-05-21T08:20:03.320Z,13.6429
2023-05-21T08:21:03.341Z,14.1429
2023-05-21T08:22:03.357Z,14.2143
2023-05-21T08:23:03.395Z,14.1429
2023-05-21T08:24:03.371Z,15
2023-05-21T08:25:03.413Z,14.5
2023-05-21T08:26:03.382Z,14.6429
2023-05-21T08:27:03.399Z,13.5
2023-05-21T08:28:03.445Z,14.2143
2023-05-21T08:29:03.476Z,14.4286
2023-05-21T08:30:03.494Z,14.5
2023-05-21T08:31:03.549Z,16.4286
2023-05-21T08:32:03.640Z,14.5
2023-05-21T08:33:03.586Z,14.8571
2023-05-21T08:34:03.597Z,14.1429
2023-05-21T08:35:03.635Z,14.9286
2023-05-21T08:36:03.629Z,13.5
2023-05-21T08:37:03.660Z,13.2143
2023-05-21T08:38:03.682Z,13.1429
2023-05-21T08:39:03.697Z,13.2143
2023-05-21T08:40:03.750Z,14.4286
2023-05-21T08:41:03.754Z,13.6429
2023-05-21T08:42:03.779Z,13.2143
2023-05-21T08:43:03.796Z,13.9286
2023-05-21T08:44:03.855Z,14.3571
2023-05-21T08:45:03.858Z,12.7143
2023-05-21T08:46:03.936Z,14.8571
2023-05-21T08:47:03.911Z,13.9286
2023-05-21T08:48:03.955Z,14.3571
2023-05-21T08:49:03.922Z,12.2143
2023-05-21T08:50:03.946Z,13
2023-05-21T08:51:03.946Z,12.7143
2023-05-21T08:52:03.968Z,12.9286
2023-05-21T08:53:07.588Z,12.7143
2023-05-21T08:54:04.006Z,13.1429
2023-05-21T08:55:04.032Z,13.3571
2023-05-21T08:56:04.026Z,13.2143
2023-05-21T08:57:04.016Z,13.6429
2023-05-21T08:58:04.058Z,12.8571
2023-05-21T08:59:04.085Z,13.6429
2023-05-21T09:00:03.108Z,13.1429
2023-05-21T09:01:03.156Z,12.4286
2023-05-21T09:02:03.189Z,12.9286
2023-05-21T09:03:03.313Z,15.2143
2023-05-21T09:04:19.010Z,13.4286
2023-05-21T09:05:03.236Z,13
2023-05-21T09:06:03.278Z,12.8571
2023-05-21T09:07:03.319Z,12.1429
2023-05-21T09:08:03.316Z,12.8571
2023-05-21T09:09:03.366Z,12.8571
2023-05-21T09:10:03.366Z,12.7143
2023-05-21T09:11:03.402Z,13.6429
2023-05-21T09:12:03.420Z,13.5
2023-05-21T09:13:03.454Z,13.3571
2023-05-21T09:14:03.584Z,13.2143
2023-05-21T09:15:03.487Z,13
2023-05-21T09:16:03.493Z,13.6429
2023-05-21T09:17:03.577Z,13.5
2023-05-21T09:18:03.570Z,13.8571
2023-05-21T09:19:04.772Z,12.8571
2023-05-21T09:20:03.563Z,14.2143
2023-05-21T09:21:03.565Z,13.1429
2023-05-21T09:22:03.574Z,13
2023-05-21T09:23:03.610Z,14
2023-05-21T09:24:03.595Z,14.1429
2023-05-21T09:25:03.597Z,13.7143
2023-05-21T09:26:03.600Z,13.3571
2023-05-21T09:27:03.686Z,14.3571
2023-05-21T09:28:03.672Z,15.3571
2023-05-21T09:29:03.720Z,14.5
2023-05-21T09:30:03.715Z,12.4286
2023-05-21T09:31:03.754Z,12.1429
2023-05-21T09:32:03.786Z,12.4286
2023-05-21T09:33:03.862Z,18.5
2023-05-21T09:34:03.825Z,12.7143
2023-05-21T09:35:03.849Z,13.8571
2023-05-21T09:36:03.870Z,13.2143
2023-05-21T09:38:03.923Z,13.1429
2023-05-21T09:39:03.959Z,13.3571
2023-05-21T09:40:03.957Z,14.9286
2023-05-21T09:41:03.985Z,12.8571
2023-05-21T09:42:04.002Z,12.8571
2023-05-21T09:43:04.025Z,13.9286
2023-05-21T09:44:04.101Z,12.7143
2023-05-21T09:45:04.079Z,12.5
2023-05-21T09:46:04.111Z,13.5
2023-05-21T09:47:03.094Z,13.4286
2023-05-21T09:48:03.148Z,13.4286
2023-05-21T09:49:03.123Z,14.9286
2023-05-21T09:50:03.150Z,11.9286
2023-05-21T09:51:03.147Z,13
2023-05-21T09:52:03.156Z,12.5
2023-05-21T09:53:03.161Z,12
2023-05-21T09:54:03.192Z,12
2023-05-21T09:55:03.220Z,11.9286
2023-05-21T09:56:03.229Z,13.2143
2023-05-21T09:57:03.567Z,11.8571
2023-05-21T09:58:03.279Z,17.4286
2023-05-21T09:59:03.320Z,12.3571
2023-05-21T10:00:03.354Z,17.7143
2023-05-21T10:01:03.373Z,13.7143
2023-05-21T10:02:03.432Z,13.8571
2023-05-21T10:03:03.482Z,12.9286
2023-05-21T10:04:03.478Z,12.8571
2023-05-21T10:05:03.483Z,11.3571
2023-05-21T10:06:03.515Z,13.2143
2023-05-21T10:07:03.546Z,14.5
2023-05-21T10:08:03.610Z,12.9286
2023-05-21T10:09:05.643Z,11.8571
2023-05-21T10:10:03.634Z,12
2023-05-21T10:11:03.656Z,11.4286
2023-05-21T10:12:03.686Z,14.3571
2023-05-21T10:13:03.707Z,14.3571
2023-05-21T10:14:03.774Z,11.8571
2023-05-21T10:15:03.770Z,11.4286
2023-05-21T10:16:03.800Z,12.4286
2023-05-21T10:17:03.823Z,12.7143
2023-05-21T10:18:03.899Z,12.3571
2023-05-21T10:19:03.878Z,11.2143
2023-05-21T10:20:03.866Z,10.9286
2023-05-21T10:21:03.891Z,11.3571
2023-05-21T10:22:03.930Z,11
2023-05-21T10:23:03.978Z,12.1429
2023-05-21T10:24:03.957Z,12.3571
2023-05-21T10:25:04.028Z,12.4286
2023-05-21T10:26:03.997Z,10.4286
2023-05-21T10:27:04.008Z,10.5
2023-05-21T10:28:04.063Z,11.4286
2023-05-21T10:29:04.089Z,10.4286
2023-05-21T10:30:04.049Z,9.71429
2023-05-21T10:31:04.096Z,9.92857
2023-05-21T10:32:04.094Z,10.4286
2023-05-21T10:33:04.159Z,9.64286
2023-05-21T10:34:03.123Z,10.2143
2023-05-21T10:35:03.142Z,10.9286
2023-05-21T10:36:03.144Z,9.64286
2023-05-21T10:37:03.206Z,10.2143
2023-05-21T10:38:03.277Z,9.92857
2023-05-21T10:39:03.233Z,11.8571
2023-05-21T10:40:03.253Z,9.92857
2023-05-21T10:41:03.278Z,9.42857
2023-05-21T10:42:03.336Z,11.1429
2023-05-21T10:43:03.378Z,10.6429
2023-05-21T10:44:03.348Z,11.8571
2023-05-21T10:45:03.377Z,10
2023-05-21T10:46:03.430Z,9.21429
2023-05-21T10:47:03.425Z,10.3571
2023-05-21T10:48:03.497Z,9.5
2023-05-21T10:49:03.480Z,8.85714
2023-05-21T10:50:03.482Z,9.42857
2023-05-21T10:51:03.505Z,11.9286
2023-05-21T10:52:03.520Z,9.21429
2023-05-21T10:53:03.545Z,11.7143
2023-05-21T10:54:03.552Z,9.92857
2023-05-21T10:55:03.567Z,11.1429
2023-05-21T10:56:03.561Z,9.85714
2023-05-21T10:57:03.599Z,10.1429
2023-05-21T10:58:03.591Z,9.92857
2023-05-21T10:59:03.596Z,10.5
2023-05-21T11:00:03.623Z,10.2143
2023-05-21T11:01:03.643Z,9.71429
2023-05-21T11:02:03.694Z,12.4286
2023-05-21T11:03:03.721Z,9.21429
2023-05-21T11:04:03.712Z,9.5
2023-05-21T11:05:03.782Z,8.85714
2023-05-21T11:06:03.775Z,8.5
2023-05-21T11:07:03.839Z,9.85714
2023-05-21T11:08:03.820Z,10.8571
2023-05-21T11:09:03.852Z,9.14286
2023-05-21T11:10:03.875Z,15.7143
2023-05-21T11:11:03.901Z,11.3571
2023-05-21T11:12:03.939Z,13.7143
2023-05-21T11:13:04.013Z,11.4286
2023-05-21T11:14:03.968Z,13.8571
2023-05-21T11:15:03.996Z,10.8571
2023-05-21T11:16:04.024Z,9.71429
2023-05-21T11:17:04.108Z,9.92857
2023-05-21T11:18:04.110Z,14.9286
2023-05-21T11:19:03.239Z,12.1429
2023-05-21T11:20:03.119Z,11.1429
2023-05-21T11:21:03.144Z,10.9286
2023-05-21T11:22:03.168Z,10
2023-05-21T11:23:03.182Z,13.2143
2023-05-21T11:24:03.261Z,11.1429
2023-05-21T11:25:03.223Z,9.92857
2023-05-21T11:26:03.232Z,10.1429
2023-05-21T11:27:03.245Z,10.4286
2023-05-21T11:28:03.257Z,11.2143
2023-05-21T11:29:03.321Z,11.7143
2023-05-21T11:30:03.285Z,10.2143
2023-05-21T11:31:03.304Z,11.4286
2023-05-21T11:32:03.287Z,8.92857
2023-05-21T11:33:03.367Z,10.1429
2023-05-21T11:34:03.348Z,10
2023-05-21T11:35:03.372Z,10.2143
2023-05-21T11:36:03.438Z,10.6429
2023-05-21T11:37:03.455Z,10.1429
2023-05-21T11:38:03.456Z,8.64286
2023-05-21T11:39:03.477Z,8.64286
2023-05-21T11:40:03.509Z,8.21429
2023-05-21T11:41:03.537Z,9.92857
2023-05-21T11:42:04.809Z,8.71429
2023-05-21T11:43:03.601Z,7.71429
2023-05-21T11:44:03.614Z,8.42857
2023-05-21T11:45:03.656Z,9.35714
2023-05-21T11:46:03.730Z,9.21429
2023-05-21T11:47:03.684Z,20.4286
2023-05-21T11:48:03.762Z,11.3571
2023-05-21T11:49:03.754Z,13.4286
2023-05-21T11:50:03.771Z,9
2023-05-21T11:51:03.777Z,9.85714
2023-05-21T11:52:03.804Z,8.5
2023-05-21T11:53:03.830Z,8.42857
2023-05-21T11:54:03.846Z,9.21429
2023-05-21T11:55:03.857Z,14.1429
2023-05-21T11:56:03.888Z,10.2143
2023-05-21T11:57:03.930Z,9.5
2023-05-21T11:58:03.910Z,9.64286
2023-05-21T11:59:03.931Z,8.42857
2023-05-21T12:00:03.938Z,7.92857
2023-05-21T12:01:03.957Z,7.64286
2023-05-21T12:02:03.981Z,8
2023-05-21T12:03:04.028Z,7.85714
2023-05-21T12:04:04.072Z,9.35714
2023-05-21T12:05:04.000Z,11.9286
2023-05-21T12:06:04.120Z,9
2023-05-21T12:07:04.050Z,8.64286
2023-05-21T12:08:04.115Z,9.64286
2023-05-21T12:09:04.111Z,8.42857
2023-05-21T12:10:03.114Z,7.85714
2023-05-21T12:11:03.154Z,8.71429
2023-05-21T12:12:03.164Z,9.21429
2023-05-21T12:13:03.179Z,89.6429
2023-05-21T12:14:03.264Z,12.1429
2023-05-21T12:15:03.233Z,7.85714
2023-05-21T12:16:04.576Z,8
2023-05-21T12:17:03.293Z,9.92857
2023-05-21T12:18:03.333Z,8.85714
2023-05-21T12:19:03.370Z,10.1429
2023-05-21T12:20:03.331Z,9
2023-05-21T12:21:03.368Z,9.85714
2023-05-21T12:22:03.407Z,9
2023-05-21T12:23:03.393Z,8.14286
2023-05-21T12:24:03.416Z,7.64286